Time;durP1;ratioP1;P1;durP2;ratioP2;P2;SDS_P1;SDS_P2;PMS_P1;PMS_P2;Temp;Humidity;BMP_temperature;BMP_pressure;BME280_temperature;BME280_humidity;BME280_pressure;Samples;Min_cycle;Max_cycle;Signal;HPM_P1;HPM_P2
2021/12/19 00:00:07;;;;;;;;;103.00;87.60;22.50;99.90;;;;;;5040347;28;8855;-64
2021/12/19 00:10:27;;;;;;;;;91.00;80.00;22.70;99.90;;;;;;5006279;28;8794;-65
2021/12/19 00:12:55;;;;;;;;;87.00;75.60;22.80;99.90;;;;;;5057590;28;8820;-65
2021/12/19 00:15:22;;;;;;;;;81.40;75.40;22.70;99.90;;;;;;5056795;28;8803;-65
2021/12/19 00:17:49;;;;;;;;;77.60;66.20;22.70;99.90;;;;;;5055681;28;8771;-65
2021/12/19 00:20:16;;;;;;;;;80.80;68.60;22.70;99.90;;;;;;5056940;28;8812;-65
2021/12/19 00:22:42;;;;;;;;;79.60;66.60;22.60;99.90;;;;;;5055543;28;8865;-65
2021/12/19 00:25:09;;;;;;;;;76.80;67.80;22.60;99.90;;;;;;5039822;28;8751;-65
2021/12/19 00:27:36;;;;;;;;;72.00;63.40;22.60;99.90;;;;;;5056865;28;8750;-65
2021/12/19 00:30:03;;;;;;;;;80.80;73.40;22.60;99.90;;;;;;5039275;28;8782;-64
2021/12/19 00:32:30;;;;;;;;;78.80;70.20;22.70;99.90;;;;;;5038891;28;9441;-65
2021/12/19 00:34:56;;;;;;;;;76.00;66.00;22.80;99.90;;;;;;5039039;28;9404;-65
2021/12/19 00:37:23;;;;;;;;;81.60;70.60;22.90;99.90;;;;;;5057032;28;8871;-65
2021/12/19 00:39:50;;;;;;;;;78.80;68.20;22.90;99.90;;;;;;5056677;28;8747;-66
2021/12/19 00:42:36;;;;;;;;;74.00;64.40;23.00;99.90;;;;;;5038805;28;8837;-66
2021/12/19 00:45:24;;;;;;;;;78.60;68.60;23.10;99.90;;;;;;5056648;28;8819;-65
2021/12/19 00:47:50;;;;;;;;;79.40;68.80;23.10;99.90;;;;;;5041387;28;8832;-65
2021/12/19 00:50:17;;;;;;;;;77.20;65.00;23.00;99.90;;;;;;5056436;28;8751;-65
2021/12/19 00:52:46;;;;;;;;;77.80;68.60;23.00;99.90;;;;;;5056243;28;8743;-65
2021/12/19 00:55:15;;;;;;;;;76.80;70.20;23.00;99.90;;;;;;5057385;28;8834;-65
2021/12/19 00:57:41;;;;;;;;;82.40;75.20;23.00;99.90;;;;;;5038705;28;8770;-65
2021/12/19 01:00:09;;;;;;;;;93.40;83.40;22.90;99.90;;;;;;5056656;28;8751;-65
2021/12/19 01:02:36;;;;;;;;;90.40;79.00;22.90;99.90;;;;;;5055931;28;8775;-65
2021/12/19 01:05:04;;;;;;;;;91.20;84.40;23.10;99.90;;;;;;5056241;28;8777;-65
2021/12/19 01:07:30;;;;;;;;;95.00;83.80;23.20;99.90;;;;;;5038683;28;8874;-65
2021/12/19 01:09:57;;;;;;;;;89.20;76.00;23.30;99.90;;;;;;5039399;28;8743;-65
2021/12/19 01:12:25;;;;;;;;;92.00;83.00;23.30;99.90;;;;;;5038735;28;8855;-65
2021/12/19 01:14:54;;;;;;;;;92.40;80.80;23.20;99.90;;;;;;5058383;28;8770;-65
2021/12/19 01:17:21;;;;;;;;;90.60;77.60;23.20;99.90;;;;;;5058963;28;8821;-65
2021/12/19 01:19:48;;;;;;;;;95.60;85.00;23.10;99.90;;;;;;5060111;28;8759;-65
2021/12/19 01:22:14;;;;;;;;;93.60;83.80;22.90;99.90;;;;;;5060858;28;8897;-65
2021/12/19 01:24:41;;;;;;;;;92.80;81.20;22.90;99.90;;;;;;5042488;28;8743;-65
2021/12/19 01:27:08;;;;;;;;;82.00;72.00;23.00;99.90;;;;;;5060399;28;8743;-65
2021/12/19 01:29:35;;;;;;;;;91.80;82.20;23.00;99.90;;;;;;5060048;28;8828;-65
2021/12/19 01:32:02;;;;;;;;;88.20;78.80;23.10;99.90;;;;;;5059964;28;8762;-64
2021/12/19 01:34:28;;;;;;;;;78.00;72.40;23.20;99.90;;;;;;5042219;28;8719;-65
2021/12/19 01:36:55;;;;;;;;;92.20;77.40;23.20;99.90;;;;;;5042761;28;8768;-65
2021/12/19 01:39:22;;;;;;;;;83.20;75.40;23.20;99.90;;;;;;5059714;28;8755;-65
2021/12/19 01:41:53;;;;;;;;;87.20;77.00;23.20;99.90;;;;;;5059971;28;8833;-65
2021/12/19 01:44:20;;;;;;;;;81.80;75.40;23.20;99.90;;;;;;5059692;28;8814;-65
2021/12/19 01:46:47;;;;;;;;;81.80;70.20;23.20;99.90;;;;;;5059642;28;8785;-65
2021/12/19 01:49:14;;;;;;;;;90.40;79.40;23.30;99.90;;;;;;5060400;28;8816;-65
2021/12/19 01:51:42;;;;;;;;;79.40;70.40;23.40;99.90;;;;;;5059525;28;8754;-65
2021/12/19 01:54:08;;;;;;;;;84.60;74.40;23.50;99.90;;;;;;5042185;28;8732;-65
2021/12/19 01:56:35;;;;;;;;;81.40;72.80;23.40;99.90;;;;;;5059039;28;8761;-65
2021/12/19 01:59:04;;;;;;;;;85.40;80.00;23.30;99.90;;;;;;5059350;28;8795;-65
2021/12/19 02:01:31;;;;;;;;;100.20;88.60;23.30;99.90;;;;;;5059155;28;8770;-65
2021/12/19 02:03:57;;;;;;;;;93.20;82.80;23.40;99.90;;;;;;5042275;28;8734;-65
2021/12/19 02:06:27;;;;;;;;;91.40;78.40;23.60;99.90;;;;;;5059228;28;8774;-65
2021/12/19 02:08:59;;;;;;;;;87.80;77.80;23.50;99.90;;;;;;5041871;28;9364;-65
2021/12/19 02:11:25;;;;;;;;;85.80;74.00;23.50;99.90;;;;;;5059116;28;8850;-65
2021/12/19 02:13:52;;;;;;;;;79.40;57.80;23.60;99.90;;;;;;5059703;28;8754;-65
2021/12/19 02:16:19;;;;;;;;;84.60;71.40;23.60;99.90;;;;;;5059739;28;8730;-65
2021/12/19 02:18:45;;;;;;;;;86.60;77.00;23.60;99.90;;;;;;5031712;28;8750;-65
2021/12/19 02:21:12;;;;;;;;;85.60;76.80;23.80;99.90;;;;;;5059258;28;8730;-65
2021/12/19 02:23:39;;;;;;;;;87.80;77.80;23.80;99.90;;;;;;5057776;28;8844;-65
2021/12/19 02:26:05;;;;;;;;;87.60;75.40;24.00;99.90;;;;;;5040600;28;8715;-65
2021/12/19 02:28:32;;;;;;;;;84.00;74.20;24.20;99.90;;;;;;5041183;28;8797;-65
2021/12/19 02:30:59;;;;;;;;;84.40;72.20;24.30;99.90;;;;;;5058319;28;8767;-65
2021/12/19 02:33:28;;;;;;;;;80.60;66.60;24.30;99.90;;;;;;5058715;28;9522;-65
2021/12/19 02:36:20;;;;;;;;;79.20;67.60;24.10;99.90;;;;;;5041428;28;9443;-65
2021/12/19 02:49:29;;;;;;;;;82.80;66.80;24.30;99.90;;;;;;5018606;28;8751;-65
2021/12/19 02:51:55;;;;;;;;;76.80;60.00;24.40;99.90;;;;;;5001802;28;8814;-65
2021/12/19 02:54:24;;;;;;;;;76.00;61.20;24.50;99.80;;;;;;4985158;28;8780;-65
2021/12/19 02:56:51;;;;;;;;;74.00;56.20;24.10;99.90;;;;;;5018599;28;8774;-65
2021/12/19 02:59:18;;;;;;;;;75.40;57.80;24.20;99.90;;;;;;5001246;28;8783;-65
2021/12/19 03:01:46;;;;;;;;;65.25;53.25;24.30;99.60;;;;;;5033820;28;8813;-65
2021/12/19 03:04:13;;;;;;;;;70.50;55.25;24.30;98.90;;;;;;5039027;28;8772;-65
2021/12/19 03:06:48;;;;;;;;;73.75;54.25;24.70;98.60;;;;;;5038451;28;8745;-65
2021/12/19 03:09:26;;;;;;;;;58.75;47.25;24.80;98.10;;;;;;5020812;28;8745;-65
2021/12/19 03:12:09;;;;;;;;;66.25;51.75;24.90;98.00;;;;;;5038029;28;8754;-64
2021/12/19 03:20:09;;;;;;;;;55.50;41.75;24.80;98.20;;;;;;5018254;28;8768;-65
2021/12/19 03:22:36;;;;;;;;;57.75;44.75;25.10;96.50;;;;;;5000494;28;8823;-65
2021/12/19 03:25:03;;;;;;;;;53.00;42.25;25.20;96.80;;;;;;5018819;28;8794;-64
2021/12/19 03:27:31;;;;;;;;;52.50;43.00;25.20;95.10;;;;;;5017866;28;8825;-65
2021/12/19 03:29:57;;;;;;;;;75.00;43.75;25.40;95.10;;;;;;5002094;28;8791;-65
2021/12/19 03:32:26;;;;;;;;;43.25;34.75;25.70;93.70;;;;;;5037491;28;8784;-65
2021/12/19 03:34:52;;;;;;;;;37.25;31.00;25.90;93.00;;;;;;5037995;28;8772;-65
2021/12/19 03:37:19;;;;;;;;;40.00;33.25;26.00;92.90;;;;;;5020784;28;8748;-65
2021/12/19 03:39:57;;;;;;;;;42.25;35.25;26.10;92.60;;;;;;5020658;28;8757;-66
2021/12/19 03:42:25;;;;;;;;;53.00;38.75;26.10;92.80;;;;;;5037372;28;9504;-65
2021/12/19 03:44:52;;;;;;;;;49.50;37.75;26.00;92.40;;;;;;5027631;28;8816;-65
2021/12/19 03:47:19;;;;;;;;;49.00;38.00;26.10;92.30;;;;;;5058206;28;9272;-65
2021/12/19 03:49:46;;;;;;;;;49.75;38.00;26.10;92.30;;;;;;5057431;28;8746;-65
2021/12/19 03:52:13;;;;;;;;;48.25;40.25;26.00;92.00;;;;;;5058267;28;9476;-65
2021/12/19 03:54:40;;;;;;;;;46.50;37.50;25.80;91.90;;;;;;5057518;28;8754;-65
2021/12/19 03:57:07;;;;;;;;;54.75;41.50;25.80;92.60;;;;;;5057656;28;8773;-65
2021/12/19 03:59:33;;;;;;;;;52.75;41.50;25.90;92.10;;;;;;5057362;28;8887;-65
2021/12/19 04:02:00;;;;;;;;;52.00;39.75;26.00;92.10;;;;;;5057381;28;8778;-65
2021/12/19 04:04:27;;;;;;;;;43.50;34.50;26.20;92.50;;;;;;5057006;28;8734;-66
2021/12/19 04:06:54;;;;;;;;;49.25;38.00;26.40;91.10;;;;;;5057838;28;8726;-65
2021/12/19 04:09:21;;;;;;;;;51.75;41.25;26.80;89.80;;;;;;5057099;28;9445;-66
2021/12/19 04:11:50;;;;;;;;;49.75;39.25;26.70;89.70;;;;;;5057254;28;8745;-66
2021/12/19 04:14:16;;;;;;;;;48.00;39.00;26.50;90.20;;;;;;5056991;28;8792;-66
2021/12/19 04:16:43;;;;;;;;;49.50;39.00;26.80;90.50;;;;;;5056978;28;8843;-66
2021/12/19 04:19:11;;;;;;;;;46.00;36.25;26.70;90.00;;;;;;5057580;28;8757;-65
2021/12/19 04:21:38;;;;;;;;;47.00;39.50;26.70;90.30;;;;;;5056771;28;8762;-66
2021/12/19 04:24:05;;;;;;;;;47.00;38.75;26.60;90.10;;;;;;5056938;28;8758;-65
2021/12/19 04:26:32;;;;;;;;;48.00;38.50;26.20;90.90;;;;;;5056868;28;8768;-65
2021/12/19 04:28:58;;;;;;;;;45.25;35.75;26.20;91.30;;;;;;5056840;28;8741;-65
2021/12/19 04:31:25;;;;;;;;;48.75;40.75;26.40;90.90;;;;;;5056544;28;8790;-66
2021/12/19 04:33:52;;;;;;;;;48.50;38.50;26.50;90.50;;;;;;5057460;28;8726;-66
2021/12/19 04:36:22;;;;;;;;;48.25;39.25;26.50;90.40;;;;;;5057101;28;8725;-66
2021/12/19 04:57:36;;;;;;;;;50.00;40.50;26.40;90.10;;;;;;5056134;28;8753;-66
2021/12/19 05:00:10;;;;;;;;;53.50;41.25;26.60;90.30;;;;;;5056542;28;8835;-66
2021/12/19 05:03:04;;;;;;;;;47.75;39.25;26.70;90.30;;;;;;5055268;28;8837;-66
2021/12/19 05:14:11;;;;;;;;;49.00;40.25;27.00;89.40;;;;;;5055817;28;8761;-65
2021/12/19 05:16:41;;;;;;;;;51.25;41.75;27.00;89.10;;;;;;5040386;28;9579;-65
2021/12/19 05:19:46;;;;;;;;;46.00;39.50;27.00;89.50;;;;;;5037217;28;8768;-65
2021/12/19 05:22:02;;;;;;;;;55.50;43.75;26.90;88.20;;;;;;5031319;28;8906;-66
2021/12/19 05:25:00;;;;;;;;;51.25;42.00;27.00;90.00;;;;;;5035195;28;8798;-66
2021/12/19 05:27:27;;;;;;;;;52.75;40.75;27.00;88.70;;;;;;5024896;28;8791;-66
2021/12/19 05:29:53;;;;;;;;;33.00;28.75;27.30;88.60;;;;;;5036811;28;9106;-66
2021/12/19 05:32:20;;;;;;;;;50.75;40.50;27.50;85.90;;;;;;5038364;28;8761;-66
2021/12/19 05:34:48;;;;;;;;;54.75;41.50;27.60;86.70;;;;;;5055340;28;8778;-66
2021/12/19 05:45:29;;;;;;;;;46.25;38.75;27.60;87.30;;;;;;5056115;28;8823;-65
2021/12/19 05:47:57;;;;;;;;;51.00;40.75;27.50;88.80;;;;;;5056102;28;8869;-65
2021/12/19 05:50:23;;;;;;;;;52.00;42.25;27.30;88.60;;;;;;5037785;28;8829;-66
2021/12/19 05:52:50;;;;;;;;;45.00;39.00;27.20;87.40;;;;;;5038510;28;8743;-65
2021/12/19 05:55:17;;;;;;;;;47.75;39.00;27.30;88.40;;;;;;5038705;28;8736;-65
2021/12/19 05:57:44;;;;;;;;;48.75;39.25;27.30;87.80;;;;;;5055977;28;8796;-65
2021/12/19 06:00:14;;;;;;;;;51.00;41.25;27.10;87.70;;;;;;5055965;28;8759;-65
2021/12/19 06:02:41;;;;;;;;;47.00;39.75;27.00;87.90;;;;;;5058845;28;8795;-66
2021/12/19 06:05:09;;;;;;;;;48.25;38.25;27.20;87.40;;;;;;5059693;28;8755;-66
2021/12/19 06:07:35;;;;;;;;;51.50;40.25;27.40;86.00;;;;;;5059352;28;8849;-66
2021/12/19 06:10:03;;;;;;;;;51.00;39.50;27.60;84.70;;;;;;5060180;28;8751;-66
2021/12/19 06:12:31;;;;;;;;;50.75;40.50;27.80;85.00;;;;;;5041735;28;8758;-65
2021/12/19 06:14:58;;;;;;;;;48.25;38.25;27.60;85.70;;;;;;5059597;28;8806;-65
2021/12/19 06:17:26;;;;;;;;;51.25;41.00;27.40;85.50;;;;;;5024937;28;8781;-66
2021/12/19 06:19:52;;;;;;;;;21.25;17.00;27.40;85.30;;;;;;5059240;28;8770;-65
2021/12/19 06:22:19;;;;;;;;;48.50;39.25;27.50;84.40;;;;;;5059446;28;8775;-66
2021/12/19 06:24:46;;;;;;;;;52.25;39.75;27.90;84.80;;;;;;5059062;28;8788;-65
2021/12/19 06:27:12;;;;;;;;;45.25;37.00;28.20;84.40;;;;;;5058117;28;9425;-65
2021/12/19 06:29:39;;;;;;;;;48.75;38.00;28.00;82.00;;;;;;5059262;28;8806;-65
2021/12/19 06:32:06;;;;;;;;;50.25;39.25;27.80;82.90;;;;;;5058955;28;8763;-65
2021/12/19 06:34:33;;;;;;;;;42.75;36.25;27.80;82.60;;;;;;5057605;28;9412;-65
2021/12/19 06:36:59;;;;;;;;;44.25;36.00;27.80;81.00;;;;;;5059331;28;8849;-65
2021/12/19 06:39:26;;;;;;;;;50.00;38.00;27.90;83.30;;;;;;5041013;28;8751;-66
2021/12/19 06:41:53;;;;;;;;;46.75;38.25;28.10;82.60;;;;;;5058847;28;8762;-65
2021/12/19 06:44:22;;;;;;;;;48.75;39.25;28.00;83.20;;;;;;5058590;28;8755;-66
2021/12/19 06:46:48;;;;;;;;;37.75;33.00;28.10;83.90;;;;;;5025058;28;8834;-66
2021/12/19 06:49:15;;;;;;;;;50.25;39.25;28.50;82.90;;;;;;5039374;28;8713;-66
2021/12/19 06:51:44;;;;;;;;;45.25;37.25;28.60;82.30;;;;;;5021138;28;8741;-66
2021/12/19 06:54:11;;;;;;;;;48.00;36.75;28.80;81.40;;;;;;5021685;28;8811;-65
2021/12/19 06:56:38;;;;;;;;;48.25;38.00;28.40;80.40;;;;;;5038631;28;8757;-66
2021/12/19 06:59:04;;;;;;;;;46.25;36.75;28.30;80.00;;;;;;5020720;28;8812;-66
2021/12/19 07:01:31;;;;;;;;;45.50;37.00;28.50;80.30;;;;;;5051469;28;8731;-66
2021/12/19 07:03:58;;;;;;;;;47.50;35.25;28.50;78.50;;;;;;5058913;28;8755;-66
2021/12/19 07:06:24;;;;;;;;;51.00;38.50;28.60;77.70;;;;;;5058063;28;8754;-66
2021/12/19 07:08:51;;;;;;;;;45.50;37.25;28.50;79.60;;;;;;5058175;28;8754;-66
2021/12/19 07:11:18;;;;;;;;;45.25;36.25;28.40;79.90;;;;;;5057986;28;8712;-66
2021/12/19 07:13:44;;;;;;;;;40.75;35.50;28.20;79.50;;;;;;5058134;28;8875;-66
2021/12/19 07:16:11;;;;;;;;;46.50;36.50;28.20;78.80;;;;;;5058608;28;8738;-66
2021/12/19 07:18:38;;;;;;;;;47.00;36.75;28.40;79.80;;;;;;5057868;28;8743;-66
2021/12/19 07:21:07;;;;;;;;;32.75;29.75;28.60;79.20;;;;;;5058163;28;8816;-66
2021/12/19 07:23:34;;;;;;;;;44.00;36.00;28.60;81.50;;;;;;5057510;28;8747;-66
2021/12/19 07:26:01;;;;;;;;;42.75;34.25;28.40;82.80;;;;;;5056762;28;8730;-65
2021/12/19 07:28:28;;;;;;;;;52.25;37.75;28.50;82.60;;;;;;5057810;28;8759;-65
2021/12/19 07:30:56;;;;;;;;;46.25;37.00;28.00;83.90;;;;;;5058509;28;8767;-65
2021/12/19 07:33:23;;;;;;;;;47.50;36.25;27.90;82.00;;;;;;5057856;28;9160;-66
2021/12/19 07:35:50;;;;;;;;;46.00;38.00;27.90;82.50;;;;;;5057919;28;8758;-65
2021/12/19 07:38:28;;;;;;;;;41.00;33.75;28.10;81.90;;;;;;5057752;28;8754;-66
2021/12/19 07:40:57;;;;;;;;;44.75;33.50;28.20;82.30;;;;;;5057758;28;8763;-65
2021/12/19 07:43:24;;;;;;;;;48.00;37.75;28.10;82.40;;;;;;5040887;28;9012;-65
2021/12/19 07:45:51;;;;;;;;;49.75;39.25;28.00;82.70;;;;;;5049762;28;8818;-66
2021/12/19 07:48:18;;;;;;;;;47.75;37.25;28.00;83.40;;;;;;5057665;28;8788;-66
2021/12/19 07:50:45;;;;;;;;;47.00;38.25;27.90;82.70;;;;;;5057660;28;8804;-65
2021/12/19 07:53:11;;;;;;;;;38.50;33.25;27.90;82.30;;;;;;5058077;28;8785;-65
2021/12/19 07:55:38;;;;;;;;;47.00;36.50;27.90;83.00;;;;;;5057617;28;8782;-66
2021/12/19 07:58:05;;;;;;;;;38.75;32.75;28.00;81.90;;;;;;5058140;28;8754;-66
2021/12/19 08:00:32;;;;;;;;;48.00;36.75;28.10;82.60;;;;;;5072603;28;8818;-66
2021/12/19 08:02:58;;;;;;;;;44.75;35.25;28.10;82.20;;;;;;5057475;28;8821;-65
2021/12/19 08:05:25;;;;;;;;;39.75;34.75;28.00;81.10;;;;;;5031455;28;8782;-66
2021/12/19 08:07:59;;;;;;;;;47.50;38.75;27.90;83.30;;;;;;5057312;28;8758;-65
2021/12/19 08:12:52;;;;;;;;;39.75;32.00;27.80;80.90;;;;;;5058066;28;8738;-65
2021/12/19 08:15:19;;;;;;;;;48.75;37.50;27.70;81.10;;;;;;5057174;28;8778;-65
2021/12/19 08:17:45;;;;;;;;;38.50;33.75;27.70;81.70;;;;;;5057279;28;8891;-65
2021/12/19 08:20:14;;;;;;;;;46.00;34.75;27.80;82.20;;;;;;5057163;28;9418;-65
2021/12/19 08:22:40;;;;;;;;;46.00;36.00;27.90;80.90;;;;;;5055663;28;8790;-65
2021/12/19 08:25:08;;;;;;;;;38.75;33.50;27.90;80.80;;;;;;5056838;28;9383;-65
2021/12/19 08:27:34;;;;;;;;;46.25;36.25;27.80;80.00;;;;;;5056770;28;8768;-66
2021/12/19 08:30:02;;;;;;;;;43.00;35.25;27.70;80.80;;;;;;5056905;28;8769;-65
2021/12/19 08:32:28;;;;;;;;;49.00;36.75;27.80;81.00;;;;;;5056566;28;8777;-65
2021/12/19 08:34:55;;;;;;;;;46.50;36.75;27.70;80.70;;;;;;5056760;28;8746;-65
2021/12/19 08:37:22;;;;;;;;;49.00;40.25;27.70;81.30;;;;;;5057132;28;8734;-66
2021/12/19 08:39:48;;;;;;;;;41.75;35.00;27.70;80.80;;;;;;5056906;28;8820;-65
2021/12/19 08:42:15;;;;;;;;;45.00;35.75;27.80;80.40;;;;;;5056984;28;8797;-65
2021/12/19 08:44:42;;;;;;;;;47.00;38.00;27.80;80.00;;;;;;5056504;28;8974;-65
2021/12/19 08:47:11;;;;;;;;;45.00;36.50;27.90;80.90;;;;;;5039349;28;8882;-65
2021/12/19 08:49:40;;;;;;;;;45.25;35.50;28.10;79.60;;;;;;5056326;28;8771;-65
2021/12/19 08:52:07;;;;;;;;;47.00;35.50;28.10;80.20;;;;;;5057187;28;8853;-65
2021/12/19 08:54:34;;;;;;;;;44.00;35.25;28.10;79.90;;;;;;5038664;28;8736;-66
2021/12/19 08:57:00;;;;;;;;;42.00;35.00;28.00;81.00;;;;;;5056490;28;8823;-65
2021/12/19 08:59:29;;;;;;;;;46.50;38.25;28.00;80.80;;;;;;5056300;28;8771;-65
2021/12/19 09:02:00;;;;;;;;;43.50;35.25;28.00;80.40;;;;;;5056419;28;8746;-65
2021/12/19 09:04:26;;;;;;;;;45.50;37.75;28.00;79.90;;;;;;5038969;28;8804;-66
2021/12/19 09:06:56;;;;;;;;;47.75;39.25;28.00;79.50;;;;;;5023053;28;8806;-65
2021/12/19 09:09:23;;;;;;;;;42.75;35.50;28.10;79.30;;;;;;5056427;28;8804;-65
2021/12/19 09:11:50;;;;;;;;;50.75;39.50;28.10;79.60;;;;;;5056713;28;8731;-65
2021/12/19 09:14:16;;;;;;;;;46.25;36.25;28.20;80.60;;;;;;5056730;28;8747;-67
2021/12/19 09:16:43;;;;;;;;;46.00;37.00;28.20;81.10;;;;;;5056036;28;8724;-65
2021/12/19 09:19:10;;;;;;;;;50.75;37.00;28.30;81.10;;;;;;5056748;28;8759;-65
2021/12/19 09:21:36;;;;;;;;;48.75;37.25;28.30;80.90;;;;;;5055515;28;8749;-65
2021/12/19 09:24:03;;;;;;;;;53.25;44.00;28.30;81.50;;;;;;5056301;28;8734;-65
2021/12/19 09:26:30;;;;;;;;;55.75;44.75;28.10;82.30;;;;;;5038168;28;8850;-66
2021/12/19 09:28:56;;;;;;;;;54.25;45.00;28.10;82.20;;;;;;5056606;28;8739;-65
2021/12/19 09:31:23;;;;;;;;;82.40;70.40;28.20;81.00;;;;;;5056655;28;9341;-66
2021/12/19 09:33:50;;;;;;;;;65.60;50.40;28.20;81.40;;;;;;5056583;28;8762;-66
2021/12/19 09:36:17;;;;;;;;;61.50;48.00;28.10;81.80;;;;;;5040992;28;8723;-65
2021/12/19 09:38:48;;;;;;;;;50.00;38.50;28.10;81.20;;;;;;5059976;28;8751;-65
2021/12/19 09:41:17;;;;;;;;;50.25;40.00;28.00;81.80;;;;;;5059932;28;8779;-65
2021/12/19 09:43:44;;;;;;;;;53.00;40.00;27.90;82.20;;;;;;5042472;28;8821;-65
2021/12/19 09:46:21;;;;;;;;;53.25;43.00;27.90;82.20;;;;;;5060218;28;8816;-66
2021/12/19 09:48:48;;;;;;;;;52.50;42.00;27.80;82.70;;;;;;5059810;28;8735;-65
2021/12/19 09:51:17;;;;;;;;;51.75;41.25;27.90;83.30;;;;;;5059921;28;9454;-66
2021/12/19 09:53:43;;;;;;;;;52.50;42.00;27.90;82.70;;;;;;5059731;28;8771;-65
2021/12/19 09:56:11;;;;;;;;;54.00;44.00;27.90;82.50;;;;;;5059856;28;8799;-66
2021/12/19 09:58:38;;;;;;;;;45.75;36.75;27.90;82.80;;;;;;5059543;28;8786;-66
2021/12/19 10:01:06;;;;;;;;;53.25;40.50;27.90;82.50;;;;;;5060294;28;8886;-66
2021/12/19 10:03:33;;;;;;;;;57.75;43.75;27.90;82.70;;;;;;5058052;28;8807;-66
2021/12/19 10:06:16;;;;;;;;;55.25;44.50;27.90;83.00;;;;;;5059616;28;8782;-66
2021/12/19 10:08:44;;;;;;;;;55.75;43.75;27.90;82.90;;;;;;5059218;28;8739;-66
2021/12/19 10:11:47;;;;;;;;;29.50;27.25;27.90;82.60;;;;;;5041780;28;8798;-66
2021/12/19 10:14:30;;;;;;;;;54.00;43.25;27.90;82.70;;;;;;5057966;28;8749;-66
2021/12/19 10:16:58;;;;;;;;;55.50;45.50;27.80;83.60;;;;;;5059025;28;8747;-65
2021/12/19 10:19:51;;;;;;;;;60.25;43.50;27.80;83.40;;;;;;5059608;28;9453;-66
2021/12/19 10:22:30;;;;;;;;;55.50;42.75;27.70;83.90;;;;;;5057346;28;8836;-65
2021/12/19 10:25:11;;;;;;;;;52.50;44.50;27.70;84.00;;;;;;5059726;28;8850;-65
2021/12/19 10:27:39;;;;;;;;;51.75;41.50;27.70;83.90;;;;;;5059085;28;8769;-65
2021/12/19 10:30:13;;;;;;;;;54.75;44.00;27.60;83.90;;;;;;5059098;28;8762;-65
2021/12/19 10:33:08;;;;;;;;;54.50;43.00;27.50;84.10;;;;;;5059006;28;8758;-65
2021/12/19 10:35:39;;;;;;;;;60.50;46.00;27.40;84.80;;;;;;5059052;28;8762;-65
2021/12/19 10:38:12;;;;;;;;;51.50;41.00;27.40;85.30;;;;;;5058951;28;8786;-65
2021/12/19 10:40:38;;;;;;;;;52.00;42.75;27.40;86.00;;;;;;5058733;28;9208;-65
2021/12/19 10:43:06;;;;;;;;;61.25;48.75;27.30;86.50;;;;;;5041624;28;8810;-65
2021/12/19 10:45:51;;;;;;;;;58.25;47.50;27.10;87.00;;;;;;5058549;28;8901;-65
2021/12/19 10:48:22;;;;;;;;;59.00;47.00;26.90;87.80;;;;;;5058003;28;8809;-65
2021/12/19 10:50:54;;;;;;;;;59.00;46.00;26.80;87.90;;;;;;5058789;28;8777;-65
2021/12/19 10:53:30;;;;;;;;;59.00;47.00;26.70;87.80;;;;;;5040948;28;8776;-65
2021/12/19 10:55:57;;;;;;;;;60.00;46.00;26.70;87.80;;;;;;5059064;28;9481;-65
2021/12/19 10:58:27;;;;;;;;;61.50;48.25;26.70;88.70;;;;;;5058856;28;9486;-65
2021/12/19 11:01:14;;;;;;;;;57.75;45.25;26.60;89.00;;;;;;5059128;28;8743;-65
2021/12/19 11:03:49;;;;;;;;;54.75;42.75;26.50;89.60;;;;;;5058412;28;9486;-65
2021/12/19 11:06:27;;;;;;;;;55.75;44.50;26.40;90.10;;;;;;5058871;28;8755;-65
2021/12/19 11:08:54;;;;;;;;;61.25;46.50;26.30;90.60;;;;;;5059643;28;8861;-65
2021/12/19 11:11:48;;;;;;;;;54.25;42.75;26.30;89.70;;;;;;5057909;28;8771;-66
2021/12/19 11:14:20;;;;;;;;;63.25;47.25;26.40;88.10;;;;;;5058294;28;8751;-65
2021/12/19 11:16:48;;;;;;;;;58.50;44.00;26.50;88.00;;;;;;5058749;28;8816;-65
2021/12/19 11:19:14;;;;;;;;;60.50;47.00;26.60;88.00;;;;;;5057780;28;8753;-65
2021/12/19 11:21:42;;;;;;;;;59.50;47.25;26.50;88.20;;;;;;5057642;28;8953;-65
2021/12/19 11:24:16;;;;;;;;;55.00;41.00;26.50;88.40;;;;;;5058208;28;8775;-65
2021/12/19 11:26:44;;;;;;;;;57.75;46.25;26.50;88.20;;;;;;5058076;28;8751;-65
2021/12/19 11:29:12;;;;;;;;;60.25;45.50;26.50;88.50;;;;;;5057020;28;8767;-65
2021/12/19 11:31:39;;;;;;;;;57.00;45.50;26.40;89.00;;;;;;5057424;28;8837;-65
2021/12/19 11:34:22;;;;;;;;;62.00;45.25;26.20;89.60;;;;;;5058789;28;8825;-65
2021/12/19 11:37:06;;;;;;;;;60.00;47.00;26.20;89.20;;;;;;5058813;28;8763;-65
2021/12/19 11:39:35;;;;;;;;;63.00;48.33;26.20;88.70;;;;;;5058109;28;8836;-65
2021/12/19 11:42:06;;;;;;;;;66.50;52.00;26.20;88.50;;;;;;5057859;28;8770;-65
2021/12/19 11:44:40;;;;;;;;;65.75;50.25;26.20;88.70;;;;;;5057710;28;9438;-65
2021/12/19 11:47:13;;;;;;;;;64.00;49.00;26.20;88.90;;;;;;5057408;28;8836;-65
2021/12/19 11:49:40;;;;;;;;;59.50;47.75;26.10;88.90;;;;;;5057908;28;8743;-65
2021/12/19 11:52:30;;;;;;;;;65.50;49.75;26.10;88.90;;;;;;5058347;28;8755;-65
2021/12/19 11:55:15;;;;;;;;;66.00;52.50;26.00;89.30;;;;;;5058312;28;8743;-65
2021/12/19 11:57:42;;;;;;;;;66.00;51.00;26.00;89.30;;;;;;5057681;28;8790;-65
2021/12/19 12:00:31;;;;;;;;;68.80;51.00;25.90;89.90;;;;;;5056512;28;8762;-65
2021/12/19 12:03:13;;;;;;;;;65.40;50.20;25.80;90.00;;;;;;5058000;28;8798;-65
2021/12/19 12:05:47;;;;;;;;;71.50;53.75;25.80;90.10;;;;;;5057179;28;8763;-65
2021/12/19 12:08:24;;;;;;;;;67.00;53.50;25.80;89.90;;;;;;5056325;28;8755;-65
2021/12/19 12:11:00;;;;;;;;;71.00;52.75;25.80;90.00;;;;;;5057240;28;8884;-65
2021/12/19 12:13:27;;;;;;;;;71.40;53.60;25.70;90.10;;;;;;5056768;28;9427;-65
2021/12/19 12:16:03;;;;;;;;;67.60;53.00;25.60;90.30;;;;;;5057422;28;8759;-65
2021/12/19 12:18:33;;;;;;;;;73.80;55.40;25.60;90.60;;;;;;5055730;28;8767;-65
2021/12/19 12:21:20;;;;;;;;;69.40;54.60;25.50;91.20;;;;;;5057435;28;8766;-64
2021/12/19 12:24:02;;;;;;;;;69.00;53.80;25.10;91.70;;;;;;5056916;28;8777;-65
2021/12/19 12:26:43;;;;;;;;;70.60;54.20;24.80;92.20;;;;;;5055603;28;8794;-65
2021/12/19 12:29:09;;;;;;;;;71.40;54.00;24.70;92.00;;;;;;5057067;28;9014;-65
2021/12/19 12:31:39;;;;;;;;;74.20;58.00;24.70;92.40;;;;;;5038519;28;8844;-65
2021/12/19 12:34:08;;;;;;;;;73.60;56.20;24.50;92.70;;;;;;5057244;28;8771;-64
2021/12/19 12:36:35;;;;;;;;;69.40;52.00;24.50;92.80;;;;;;5056622;28;8813;-65
2021/12/19 12:39:07;;;;;;;;;70.80;54.80;24.40;93.20;;;;;;5057163;28;8789;-64
2021/12/19 12:44:07;;;;;;;;;78.60;63.20;24.30;94.00;;;;;;5040160;28;8774;-65
2021/12/19 12:46:34;;;;;;;;;87.80;76.00;24.40;93.70;;;;;;5056100;28;8879;-65
2021/12/19 12:49:34;;;;;;;;;86.00;74.20;24.40;93.60;;;;;;5057079;28;8735;-64
2021/12/19 12:52:05;;;;;;;;;85.40;70.60;24.30;93.70;;;;;;5049436;28;8771;-65
2021/12/19 12:54:37;;;;;;;;;86.00;67.00;24.30;95.00;;;;;;5056709;28;8797;-64
2021/12/19 12:57:09;;;;;;;;;82.00;69.60;24.30;95.20;;;;;;5056689;28;8794;-64
2021/12/19 12:59:41;;;;;;;;;88.40;73.60;24.30;94.50;;;;;;5056143;28;8844;-65
2021/12/19 13:04:37;;;;;;;;;80.60;66.20;24.20;94.90;;;;;;5028185;28;8754;-65
2021/12/19 13:07:04;;;;;;;;;82.80;66.40;24.30;95.00;;;;;;5039753;28;8739;-65
2021/12/19 13:09:41;;;;;;;;;77.60;64.60;24.50;94.50;;;;;;5038781;28;8781;-65
2021/12/19 13:12:18;;;;;;;;;79.80;64.40;24.70;94.40;;;;;;5060331;28;8767;-65
2021/12/19 13:14:49;;;;;;;;;78.60;65.00;24.70;93.80;;;;;;5026345;28;8851;-65
2021/12/19 13:17:20;;;;;;;;;81.20;66.20;24.70;93.60;;;;;;5023984;28;8772;-65
2021/12/19 13:19:58;;;;;;;;;78.00;63.80;24.80;93.60;;;;;;5040854;28;8765;-64
2021/12/19 13:22:32;;;;;;;;;80.40;64.60;24.80;93.60;;;;;;5040357;28;8789;-67
2021/12/19 13:25:08;;;;;;;;;80.00;64.20;24.80;93.00;;;;;;5024948;28;8768;-65
2021/12/19 13:27:36;;;;;;;;;80.00;61.60;24.70;93.50;;;;;;5039904;28;8981;-65
2021/12/19 13:30:09;;;;;;;;;77.80;61.20;24.80;93.10;;;;;;5041562;28;8884;-65
2021/12/19 13:32:45;;;;;;;;;78.80;61.80;24.80;93.30;;;;;;5060290;28;8782;-65
2021/12/19 13:35:27;;;;;;;;;80.60;62.20;24.70;93.70;;;;;;5060761;28;8839;-65
2021/12/19 13:38:01;;;;;;;;;81.20;65.60;24.70;94.50;;;;;;5042805;28;8751;-65
2021/12/19 13:40:30;;;;;;;;;78.80;61.20;24.70;94.50;;;;;;5060147;28;8793;-65
2021/12/19 13:43:08;;;;;;;;;69.80;56.40;24.80;94.50;;;;;;5061061;28;8787;-65
2021/12/19 13:45:37;;;;;;;;;79.40;64.80;24.70;94.40;;;;;;5020461;28;8831;-65
2021/12/19 13:48:09;;;;;;;;;81.00;67.00;24.60;94.40;;;;;;5023153;28;8764;-64
2021/12/19 13:50:46;;;;;;;;;81.40;67.60;24.70;95.20;;;;;;5022484;28;8753;-65
2021/12/19 13:53:14;;;;;;;;;80.60;65.60;24.70;95.70;;;;;;5040591;28;8789;-64
2021/12/19 13:55:54;;;;;;;;;75.20;59.60;24.60;95.40;;;;;;5022132;28;8760;-65